Vale Grand Sud — FICV — position and weather

sailwx.info

Track history (hours):
 
Tides and Currents Weather Stations Pressure Air Temp Water Temp Dewpoint Dewpoint Depression Visibility Wind Speed Wind Dir Waves Ship Positions

Vale Grand Sud

Last reported at 2018-Feb-19 12:00 UTC. Time now 2018-Feb-19 12:06 UTC.
Position S 22°16' E 166°26'.

Length 41 m; draft 2.5 m.

Type: High speed craft. MMSI: 540011300.

Date/timePositionNaut miles runAvg speedWind from/ knotsBaromVisibWave heightAir tempDewpointWater temp
2018-Feb-19 12:00S 22°16' E 166°26'0 0.0
2018-Feb-19 11:30S 22°16' E 166°26'0 0.0
2018-Feb-19 11:00S 22°16' E 166°26'0 0.0
2018-Feb-19 10:30S 22°16' E 166°26'0 0.0
2018-Feb-19 10:00S 22°16' E 166°26'1 1.3
2018-Feb-19 09:30S 22°17' E 166°26'1223.8
2018-Feb-19 08:59S 22°23' E 166°38'2 1.4
2018-Feb-19 07:50S 22°23' E 166°39'1236.6
2018-Feb-19 07:30S 22°20' E 166°27'4 7.5
2018-Feb-19 07:00S 22°16' E 166°26'2 3.8
2018-Feb-19 06:30S 22°18' E 166°25'19 3.1
2018-Feb-19 00:15S 22°24' E 166°45'833.0
2018-Feb-19 00:00S 22°23' E 166°37'1223.1
2018-Feb-18 23:30S 22°16' E 166°26'1 1.3
2018-Feb-18 23:01S 22°17' E 166°26'16 5.5
2018-Feb-18 20:05S 22°23' E 166°42'335.5
2018-Feb-18 20:00S 22°23' E 166°39'1427.1
2018-Feb-18 19:30S 22°17' E 166°26'0 0.9
2018-Feb-18 19:00S 22°16' E 166°26'0 0.0
2018-Feb-18 18:29S 22°16' E 166°26'0 0.0
2018-Feb-18 18:00S 22°16' E 166°26'0 0.0
2018-Feb-18 17:30S 22°16' E 166°26'0 0.0
2018-Feb-18 17:00S 22°16' E 166°26'0 0.0
2018-Feb-18 16:30S 22°16' E 166°26'0 0.0
2018-Feb-18 16:00S 22°16' E 166°26'0 0.0
2018-Feb-18 15:31S 22°16' E 166°26'0 0.0
2018-Feb-18 15:00S 22°16' E 166°26'0 0.0
2018-Feb-18 14:31S 22°16' E 166°26'0 0.0
2018-Feb-18 14:00S 22°16' E 166°26'0 0.0
2018-Feb-18 13:30S 22°16' E 166°26'0 0.0
2018-Feb-18 13:00S 22°16' E 166°26'0 0.0
2018-Feb-18 12:30S 22°16' E 166°26'0 0.0
2018-Feb-18 12:01S 22°16' E 166°26'0 0.0
2018-Feb-18 11:30S 22°16' E 166°26'0 0.0
2018-Feb-18 11:00S 22°16' E 166°26'2 4.3
2018-Feb-18 10:30S 22°18' E 166°25'14 5.7
2018-Feb-18 08:01S 22°23' E 166°40'236.8
2018-Feb-18 07:58S 22°23' E 166°37'1225.7
2018-Feb-18 07:30S 22°16' E 166°26'0 0.3
2018-Feb-18 07:00S 22°16' E 166°26'0 0.0
2018-Feb-18 06:30S 22°16' E 166°26'0 0.0
2018-Feb-18 06:00S 22°16' E 166°26'0 0.0
2018-Feb-18 05:30S 22°16' E 166°26'0 0.0
2018-Feb-18 05:00S 22°16' E 166°26'0 0.0
2018-Feb-18 04:30S 22°16' E 166°26'0 0.0
2018-Feb-18 04:00S 22°16' E 166°26'0 0.0
2018-Feb-18 03:30S 22°16' E 166°26'0 0.0
2018-Feb-18 03:00S 22°16' E 166°26'0 0.0
2018-Feb-18 02:30S 22°16' E 166°26'0 0.0
2018-Feb-18 02:00S 22°16' E 166°26'0 0.0
2018-Feb-18 01:30S 22°16' E 166°26'0 0.0
2018-Feb-18 01:00S 22°16' E 166°26'0 0.0
2018-Feb-18 00:30S 22°16' E 166°26'0 0.0
2018-Feb-18 00:00S 22°16' E 166°26'0 0.0
2018-Feb-17 23:30S 22°16' E 166°26'0 0.0
2018-Feb-17 23:00S 22°16' E 166°26'0 0.0
2018-Feb-17 22:30S 22°16' E 166°26'0 0.0
2018-Feb-17 21:57S 22°16' E 166°26'0 0.0
2018-Feb-17 21:30S 22°16' E 166°26'0 0.0
2018-Feb-17 20:57S 22°16' E 166°26'0 0.0
2018-Feb-17 20:30S 22°16' E 166°26'0 0.0
2018-Feb-17 20:00S 22°16' E 166°26'0 0.0
2018-Feb-17 19:30S 22°16' E 166°26'0 0.0
2018-Feb-17 19:00S 22°16' E 166°26'0 0.0
2018-Feb-17 18:30S 22°16' E 166°26'0 0.0
2018-Feb-17 18:00S 22°16' E 166°26'0 0.0
2018-Feb-17 17:30S 22°16' E 166°26'0 0.0
2018-Feb-17 17:00S 22°16' E 166°26'0 0.0
2018-Feb-17 16:27S 22°16' E 166°26'0 0.0
2018-Feb-17 16:00S 22°16' E 166°26'0 0.0
2018-Feb-17 15:30S 22°16' E 166°26'0 0.0
2018-Feb-17 15:00S 22°16' E 166°26'0 0.0
2018-Feb-17 14:30S 22°16' E 166°26'0 0.0
2018-Feb-17 14:00S 22°16' E 166°26'0 0.0
2018-Feb-17 13:30S 22°16' E 166°26'0 0.0
2018-Feb-17 13:00S 22°16' E 166°26'0 0.0
2018-Feb-17 12:30S 22°16' E 166°26'0 0.0
2018-Feb-17 12:00S 22°16' E 166°26'0 0.0
2018-Feb-17 11:30S 22°16' E 166°26'0 0.0
2018-Feb-17 11:00S 22°16' E 166°26'0 0.0
2018-Feb-17 10:30S 22°16' E 166°26'0 0.0
2018-Feb-17 10:00S 22°16' E 166°26'0 0.0
2018-Feb-17 09:30S 22°16' E 166°26'0 0.0
2018-Feb-17 09:00S 22°16' E 166°26'0 0.0
2018-Feb-17 08:27S 22°16' E 166°26'0 0.0
2018-Feb-17 08:00S 22°16' E 166°26'0 0.0
2018-Feb-17 07:30S 22°16' E 166°26'0 0.0
2018-Feb-17 07:00S 22°16' E 166°26'0 0.0
2018-Feb-17 06:30S 22°16' E 166°26'0 0.0
2018-Feb-17 06:00S 22°16' E 166°26'0 0.0
2018-Feb-17 05:30S 22°16' E 166°26'0 0.0
2018-Feb-17 04:57S 22°16' E 166°26'0 0.0
2018-Feb-17 04:30S 22°16' E 166°26'0 0.0
2018-Feb-17 04:00S 22°16' E 166°26'0 0.0
2018-Feb-17 03:30S 22°16' E 166°26'0 0.0
2018-Feb-17 02:54S 22°16' E 166°26'0 0.0
2018-Feb-17 02:27S 22°16' E 166°26'0 0.0
2018-Feb-17 01:57S 22°16' E 166°26'0 0.0
2018-Feb-17 01:30S 22°16' E 166°26'0 0.0
2018-Feb-17 01:00S 22°16' E 166°26'0 0.0
2018-Feb-17 00:30S 22°16' E 166°26'0 0.0
2018-Feb-16 23:57S 22°16' E 166°26'0 0.0
2018-Feb-16 23:30S 22°16' E 166°26'0 0.0
2018-Feb-16 23:00S 22°16' E 166°26'0 0.0
2018-Feb-16 22:29S 22°16' E 166°26'0 0.0
2018-Feb-16 22:00S 22°16' E 166°26'0 0.0
2018-Feb-16 21:29S 22°16' E 166°26'0 0.0
2018-Feb-16 21:00S 22°16' E 166°26'0 0.0
2018-Feb-16 20:30S 22°16' E 166°26'0 0.0
2018-Feb-16 20:00S 22°16' E 166°26'0 0.0
2018-Feb-16 19:30S 22°16' E 166°26'0 0.0
2018-Feb-16 19:00S 22°16' E 166°26'0 0.0
2018-Feb-16 18:30S 22°16' E 166°26'0 0.0
2018-Feb-16 18:00S 22°16' E 166°26'0 0.0
2018-Feb-16 17:30S 22°16' E 166°26'0 0.0
2018-Feb-16 16:59S 22°16' E 166°26'0 0.0
2018-Feb-16 16:30S 22°16' E 166°26'0 0.0
2018-Feb-16 16:00S 22°16' E 166°26'0 0.0
2018-Feb-16 15:30S 22°16' E 166°26'0 0.0
2018-Feb-16 15:00S 22°16' E 166°26'0 0.0
2018-Feb-16 14:30S 22°16' E 166°26'0 0.0
2018-Feb-16 14:00S 22°16' E 166°26'0 0.0
2018-Feb-16 13:29S 22°16' E 166°26'0 0.0
2018-Feb-16 12:59S 22°16' E 166°26'0 0.0
2018-Feb-16 12:30S 22°16' E 166°26'0 0.0
2018-Feb-16 12:00S 22°16' E 166°26'0 0.0
2018-Feb-16 11:29S 22°16' E 166°26'0 0.0
2018-Feb-16 10:59S 22°16' E 166°26'0 0.0
2018-Feb-16 10:30S 22°16' E 166°26'0 0.0
2018-Feb-16 10:00S 22°16' E 166°26'0 0.0
2018-Feb-16 09:29S 22°16' E 166°26'0 0.0
2018-Feb-16 08:59S 22°16' E 166°26'0 0.0
2018-Feb-16 08:30S 22°16' E 166°26'0 0.0
2018-Feb-16 07:59S 22°16' E 166°26'0 0.0
2018-Feb-16 07:29S 22°16' E 166°26'4 8.1
2018-Feb-16 07:00S 22°20' E 166°28'7 0.7
2018-Feb-15 19:58S 22°20' E 166°36'1021.5
2018-Feb-15 19:30S 22°16' E 166°26'0 0.3
2018-Feb-15 19:00S 22°16' E 166°26'0 0.0
2018-Feb-15 18:30S 22°16' E 166°26'0 0.0
2018-Feb-15 18:00S 22°16' E 166°26'0 0.0
2018-Feb-15 17:30S 22°16' E 166°26'0 0.0
2018-Feb-15 17:00S 22°16' E 166°26'0 0.0
2018-Feb-15 16:30S 22°16' E 166°26'0 0.0
2018-Feb-15 16:00S 22°16' E 166°26'0 0.0
2018-Feb-15 15:30S 22°16' E 166°26'0 0.0
2018-Feb-15 14:59S 22°16' E 166°26'0 0.0
2018-Feb-15 14:30S 22°16' E 166°26'0 0.0
2018-Feb-15 14:00S 22°16' E 166°26'0 0.0
2018-Feb-15 13:30S 22°16' E 166°26'0 0.0
2018-Feb-15 13:00S 22°16' E 166°26'0 0.0
2018-Feb-15 12:30S 22°16' E 166°26'0 0.0
2018-Feb-14 23:11S 22°16' E 166°26'1 3.8
2018-Feb-14 23:01S 22°17' E 166°26'1529.3
2018-Feb-14 22:30S 22°23' E 166°40'1 0.4
2018-Feb-14 20:05S 22°23' E 166°39'334.4
2018-Feb-14 20:00S 22°23' E 166°37'1223.1
2018-Feb-14 19:30S 22°16' E 166°26'0 0.4
2018-Feb-14 19:00S 22°16' E 166°26'0 0.0
2018-Feb-14 18:30S 22°16' E 166°26'0 0.0
2018-Feb-14 18:00S 22°16' E 166°26'0 0.0
2018-Feb-14 17:30S 22°16' E 166°26'0 0.0
2018-Feb-14 17:00S 22°16' E 166°26'0 0.0
2018-Feb-14 16:28S 22°16' E 166°26'0 0.0
2018-Feb-14 16:00S 22°16' E 166°26'0 0.0
2018-Feb-14 15:30S 22°16' E 166°26'0 0.0
2018-Feb-14 14:59S 22°16' E 166°26'0 0.0
2018-Feb-14 14:30S 22°16' E 166°26'0 0.0
2018-Feb-14 14:00S 22°16' E 166°26'0 0.0
2018-Feb-14 13:30S 22°16' E 166°26'0 0.0
2018-Feb-14 13:00S 22°16' E 166°26'0 0.0
2018-Feb-14 12:30S 22°16' E 166°26'0 0.0
2018-Feb-14 12:00S 22°16' E 166°26'0 0.0
2018-Feb-14 11:30S 22°16' E 166°26'0 0.0
2018-Feb-14 11:00S 22°16' E 166°26'3 6.7
2018-Feb-14 10:30S 22°20' E 166°26'12 5.1
2018-Feb-14 08:05S 22°23' E 166°39'231.2
2018-Feb-14 08:00S 22°23' E 166°37'1223.3
2018-Feb-14 07:30S 22°17' E 166°26'0 0.9
2018-Feb-14 07:00S 22°16' E 166°26'2 3.6
2018-Feb-14 06:31S 22°18' E 166°25'13 1.2
2018-Feb-13 20:01S 22°23' E 166°38'135.8
2018-Feb-13 20:00S 22°23' E 166°37'1224.4
2018-Feb-13 19:30S 22°16' E 166°26'0 0.4
2018-Feb-13 19:00S 22°16' E 166°26'0 0.0
2018-Feb-13 18:29S 22°16' E 166°26'0 0.0
2018-Feb-13 17:59S 22°16' E 166°26'0 0.0
2018-Feb-13 17:29S 22°16' E 166°26'0 0.0
2018-Feb-13 16:59S 22°16' E 166°26'0 0.0
2018-Feb-13 16:29S 22°16' E 166°26'0 0.0
2018-Feb-13 15:59S 22°16' E 166°26'0 0.0
2018-Feb-13 15:29S 22°16' E 166°26'0 0.0
2018-Feb-13 14:56S 22°16' E 166°26'0 0.0
2018-Feb-13 14:29S 22°16' E 166°26'0 0.0
2018-Feb-13 13:59S 22°16' E 166°26'0 0.0
2018-Feb-13 13:29S 22°16' E 166°26'0 0.0
2018-Feb-13 12:59S 22°16' E 166°26'0 0.0
2018-Feb-13 12:29S 22°16' E 166°26'0 0.0
2018-Feb-13 11:59S 22°16' E 166°26'0 0.0
2018-Feb-13 11:29S 22°16' E 166°26'0 0.0
2018-Feb-13 10:59S 22°16' E 166°26'0 0.0
2018-Feb-13 10:26S 22°16' E 166°26'0 0.0
2018-Feb-13 09:59S 22°16' E 166°26'0 0.0
2018-Feb-13 09:29S 22°16' E 166°26'0 0.0
2018-Feb-13 08:59S 22°16' E 166°26'0 0.0
2018-Feb-13 08:29S 22°16' E 166°26'0 0.0
2018-Feb-13 07:59S 22°16' E 166°26'0 0.0
2018-Feb-13 07:29S 22°16' E 166°26'0 0.0
2018-Feb-13 06:59S 22°16' E 166°26'3 5.4
2018-Feb-13 06:30S 22°19' E 166°26'12 1.1
2018-Feb-12 20:01S 22°23' E 166°37'036.7
2018-Feb-12 20:00S 22°23' E 166°37'1223.3
2018-Feb-12 19:30S 22°16' E 166°26'0 0.2
2018-Feb-12 19:00S 22°16' E 166°26'0 0.0
2018-Feb-12 18:30S 22°16' E 166°26'0 0.0
2018-Feb-12 18:00S 22°16' E 166°26'0 0.0
2018-Feb-12 17:30S 22°16' E 166°26'0 0.0
2018-Feb-12 17:00S 22°16' E 166°26'0 0.0
2018-Feb-12 16:30S 22°16' E 166°26'0 0.0
2018-Feb-12 16:00S 22°16' E 166°26'0 0.0
2018-Feb-12 15:30S 22°16' E 166°26'0 0.0
2018-Feb-12 15:00S 22°16' E 166°26'0 0.0
2018-Feb-12 14:30S 22°16' E 166°26'0 0.0
2018-Feb-12 13:36S 22°16' E 166°26'0 0.0
2018-Feb-12 13:30S 22°16' E 166°26'0 0.0
2018-Feb-12 13:00S 22°16' E 166°26'0 0.0
2018-Feb-12 12:30S 22°16' E 166°26'0 0.0
2018-Feb-12 12:00S 22°16' E 166°26'0 0.0
2018-Feb-12 11:30S 22°16' E 166°26'0 0.0
2018-Feb-12 11:00S 22°16' E 166°26'0 0.0
2018-Feb-12 10:30S 22°16' E 166°26'0 0.0
2018-Feb-12 10:00S 22°16' E 166°26'0 0.0
2018-Feb-12 09:30S 22°16' E 166°26'0 0.0
2018-Feb-12 09:00S 22°16' E 166°26'0 0.0
2018-Feb-12 08:30S 22°16' E 166°26'0 0.0
2018-Feb-12 08:00S 22°16' E 166°26'0 0.0
2018-Feb-12 07:30S 22°16' E 166°26'0 0.0
2018-Feb-12 07:00S 22°16' E 166°26'714.4
2018-Feb-12 06:30S 22°21' E 166°32'7 0.7
2018-Feb-11 20:05S 22°23' E 166°39'335.0
2018-Feb-11 20:00S 22°23' E 166°36'1122.8
2018-Feb-11 19:30S 22°16' E 166°26'0 0.0
2018-Feb-11 19:00S 22°16' E 166°26'0 0.0
2018-Feb-11 18:31S 22°16' E 166°26'0 0.0
2018-Feb-11 17:58S 22°16' E 166°26'0 0.0
2018-Feb-11 17:28S 22°16' E 166°26'0 0.0
2018-Feb-11 16:58S 22°16' E 166°26'0 0.0
2018-Feb-11 16:28S 22°16' E 166°26'0 0.0
2018-Feb-11 16:01S 22°16' E 166°26'0 0.0
2018-Feb-11 15:31S 22°16' E 166°26'0 0.0
2018-Feb-11 15:01S 22°16' E 166°26'0 0.0
2018-Feb-11 14:28S 22°16' E 166°26'0 0.0
2018-Feb-11 13:58S 22°16' E 166°26'0 0.0
2018-Feb-11 13:31S 22°16' E 166°26'0 0.0
2018-Feb-11 13:01S 22°16' E 166°26'0 0.0
2018-Feb-11 12:28S 22°16' E 166°26'0 0.0
2018-Feb-11 11:58S 22°16' E 166°26'0 0.0
2018-Feb-11 11:27S 22°16' E 166°26'0 0.0
2018-Feb-11 11:00S 22°16' E 166°26'0 0.0
2018-Feb-11 10:31S 22°16' E 166°26'0 0.0
2018-Feb-11 10:01S 22°16' E 166°26'0 0.6
2018-Feb-11 09:31S 22°16' E 166°26'1324.6
2018-Feb-11 08:59S 22°23' E 166°38'0 0.3
2018-Feb-11 07:47S 22°23' E 166°39'1036.2
2018-Feb-11 07:31S 22°20' E 166°29'5 9.2
2018-Feb-11 07:00S 22°16' E 166°26'0 0.0
2018-Feb-11 06:30S 22°16' E 166°26'0 0.0
2018-Feb-11 06:00S 22°16' E 166°26'0 0.0
2018-Feb-11 05:30S 22°16' E 166°26'0 0.0
2018-Feb-11 05:00S 22°16' E 166°26'0 0.0
2018-Feb-11 04:30S 22°16' E 166°26'0 0.0
2018-Feb-11 04:00S 22°16' E 166°26'0 0.0
2018-Feb-11 03:30S 22°16' E 166°26'0 0.0
2018-Feb-11 03:00S 22°16' E 166°26'0 0.0
2018-Feb-11 02:28S 22°16' E 166°26'0 0.0
2018-Feb-11 02:00S 22°16' E 166°26'0 0.0
2018-Feb-11 01:29S 22°16' E 166°26'0 0.0
2018-Feb-11 01:00S 22°16' E 166°26'0 0.0
2018-Feb-11 00:30S 22°16' E 166°26'0 0.0
2018-Feb-11 00:00S 22°16' E 166°26'0 0.0
2018-Feb-10 23:30S 22°16' E 166°26'0 0.4
2018-Feb-10 23:00S 22°16' E 166°26'1427.0
2018-Feb-10 22:30S 22°23' E 166°39'0 0.1
2018-Feb-10 20:00S 22°23' E 166°39'1427.4
2018-Feb-10 19:30S 22°16' E 166°26'0 0.8
2018-Feb-10 19:00S 22°16' E 166°26'0 0.0
2018-Feb-10 18:30S 22°16' E 166°26'0 0.0
2018-Feb-10 18:00S 22°16' E 166°26'0 0.0
2018-Feb-10 17:30S 22°16' E 166°26'0 0.0
2018-Feb-10 17:00S 22°16' E 166°26'0 0.0
2018-Feb-10 16:30S 22°16' E 166°26'0 0.0
2018-Feb-10 16:00S 22°16' E 166°26'0 0.0
2018-Feb-10 15:30S 22°16' E 166°26'0 0.0
2018-Feb-10 15:00S 22°16' E 166°26'0 0.0
2018-Feb-10 14:30S 22°16' E 166°26'0 0.0
2018-Feb-10 13:58S 22°16' E 166°26'0 0.0
2018-Feb-10 13:30S 22°16' E 166°26'0 0.0
2018-Feb-10 13:00S 22°16' E 166°26'0 0.0
2018-Feb-10 12:30S 22°16' E 166°26'0 0.0
2018-Feb-10 12:00S 22°16' E 166°26'0 0.0
2018-Feb-10 11:30S 22°16' E 166°26'0 0.0
2018-Feb-10 11:00S 22°16' E 166°26'3 5.2
2018-Feb-10 10:30S 22°19' E 166°26'14 5.6
2018-Feb-10 08:05S 22°23' E 166°40'231.7
2018-Feb-10 08:00S 22°23' E 166°37'1224.4
2018-Feb-10 07:30S 22°16' E 166°26'0 0.8
2018-Feb-10 07:00S 22°16' E 166°26'0 0.0
2018-Feb-10 06:30S 22°16' E 166°26'0 0.0
2018-Feb-10 06:00S 22°16' E 166°26'0 0.0
2018-Feb-10 05:29S 22°16' E 166°26'0 0.0
2018-Feb-10 05:00S 22°16' E 166°26'0 0.0
2018-Feb-10 04:30S 22°16' E 166°26'0 0.0
2018-Feb-10 04:00S 22°16' E 166°26'0 0.0
2018-Feb-10 03:30S 22°16' E 166°26'0 0.0
2018-Feb-10 03:00S 22°16' E 166°26'0 0.0
2018-Feb-10 02:30S 22°16' E 166°26'0 0.0
2018-Feb-10 02:00S 22°16' E 166°26'0 0.0
2018-Feb-10 01:30S 22°16' E 166°26'0 0.0
2018-Feb-10 01:00S 22°16' E 166°26'0 0.0
2018-Feb-10 00:30S 22°16' E 166°26'0 0.0
2018-Feb-10 00:00S 22°16' E 166°26'0 0.0
2018-Feb-09 23:30S 22°16' E 166°26'0 0.0
2018-Feb-09 23:00S 22°16' E 166°26'0 0.0
2018-Feb-09 22:46S 22°16' E 166°26'0 0.0
2018-Feb-09 22:00S 22°16' E 166°26'0 0.0
2018-Feb-09 21:30S 22°16' E 166°26'0 0.0
2018-Feb-09 21:00S 22°16' E 166°26'0 0.0
2018-Feb-09 20:30S 22°16' E 166°26'0 0.0
2018-Feb-09 20:00S 22°16' E 166°26'0 0.0
2018-Feb-09 18:00S 22°16' E 166°26'0 0.0
2018-Feb-09 17:00S 22°16' E 166°26'0 0.0
2018-Feb-09 16:30S 22°16' E 166°26'0 0.0
2018-Feb-09 15:30S 22°16' E 166°26'0 0.0
2018-Feb-09 15:00S 22°16' E 166°26'0 0.0
2018-Feb-09 13:30S 22°16' E 166°26'  
Track history (hours):
 
Tides and Currents Weather Stations Pressure Air Temp Water Temp Dewpoint Dewpoint Depression Visibility Wind Speed Wind Dir Waves Ship Positions

Vale Grand Sud

Last reported at 2018-Feb-19 12:00 UTC. Time now 2018-Feb-19 12:06 UTC.
Position S 22°16' E 166°26'.

Length 41 m; draft 2.5 m.

Type: High speed craft. MMSI: 540011300.

Date/timePositionNaut miles runAvg speedWind from/ knotsBaromVisibWave heightAir tempDewpointWater temp
2018-Feb-19 12:00S 22°16' E 166°26'0 0.0
2018-Feb-19 11:30S 22°16' E 166°26'0 0.0
2018-Feb-19 11:00S 22°16' E 166°26'0 0.0
2018-Feb-19 10:30S 22°16' E 166°26'0 0.0
2018-Feb-19 10:00S 22°16' E 166°26'1 1.3
2018-Feb-19 09:30S 22°17' E 166°26'1223.8
2018-Feb-19 08:59S 22°23' E 166°38'2 1.4
2018-Feb-19 07:50S 22°23' E 166°39'1236.6
2018-Feb-19 07:30S 22°20' E 166°27'4 7.5
2018-Feb-19 07:00S 22°16' E 166°26'2 3.8
2018-Feb-19 06:30S 22°18' E 166°25'19 3.1
2018-Feb-19 00:15S 22°24' E 166°45'833.0
2018-Feb-19 00:00S 22°23' E 166°37'1223.1
2018-Feb-18 23:30S 22°16' E 166°26'1 1.3
2018-Feb-18 23:01S 22°17' E 166°26'16 5.5
2018-Feb-18 20:05S 22°23' E 166°42'335.5
2018-Feb-18 20:00S 22°23' E 166°39'1427.1
2018-Feb-18 19:30S 22°17' E 166°26'0 0.9
2018-Feb-18 19:00S 22°16' E 166°26'0 0.0
2018-Feb-18 18:29S 22°16' E 166°26'0 0.0
2018-Feb-18 18:00S 22°16' E 166°26'0 0.0
2018-Feb-18 17:30S 22°16' E 166°26'0 0.0
2018-Feb-18 17:00S 22°16' E 166°26'0 0.0
2018-Feb-18 16:30S 22°16' E 166°26'0 0.0
2018-Feb-18 16:00S 22°16' E 166°26'0 0.0
2018-Feb-18 15:31S 22°16' E 166°26'0 0.0
2018-Feb-18 15:00S 22°16' E 166°26'0 0.0
2018-Feb-18 14:31S 22°16' E 166°26'0 0.0
2018-Feb-18 14:00S 22°16' E 166°26'0 0.0
2018-Feb-18 13:30S 22°16' E 166°26'0 0.0
2018-Feb-18 13:00S 22°16' E 166°26'0 0.0
2018-Feb-18 12:30S 22°16' E 166°26'0 0.0
2018-Feb-18 12:01S 22°16' E 166°26'0 0.0
2018-Feb-18 11:30S 22°16' E 166°26'0 0.0
2018-Feb-18 11:00S 22°16' E 166°26'2 4.3
2018-Feb-18 10:30S 22°18' E 166°25'14 5.7
2018-Feb-18 08:01S 22°23' E 166°40'236.8
2018-Feb-18 07:58S 22°23' E 166°37'1225.7
2018-Feb-18 07:30S 22°16' E 166°26'0 0.3
2018-Feb-18 07:00S 22°16' E 166°26'0 0.0
2018-Feb-18 06:30S 22°16' E 166°26'0 0.0
2018-Feb-18 06:00S 22°16' E 166°26'0 0.0
2018-Feb-18 05:30S 22°16' E 166°26'0 0.0
2018-Feb-18 05:00S 22°16' E 166°26'0 0.0
2018-Feb-18 04:30S 22°16' E 166°26'0 0.0
2018-Feb-18 04:00S 22°16' E 166°26'0 0.0
2018-Feb-18 03:30S 22°16' E 166°26'0 0.0
2018-Feb-18 03:00S 22°16' E 166°26'0 0.0
2018-Feb-18 02:30S 22°16' E 166°26'0 0.0
2018-Feb-18 02:00S 22°16' E 166°26'0 0.0
2018-Feb-18 01:30S 22°16' E 166°26'0 0.0
2018-Feb-18 01:00S 22°16' E 166°26'0 0.0
2018-Feb-18 00:30S 22°16' E 166°26'0 0.0
2018-Feb-18 00:00S 22°16' E 166°26'0 0.0
2018-Feb-17 23:30S 22°16' E 166°26'0 0.0
2018-Feb-17 23:00S 22°16' E 166°26'0 0.0
2018-Feb-17 22:30S 22°16' E 166°26'0 0.0
2018-Feb-17 21:57S 22°16' E 166°26'0 0.0
2018-Feb-17 21:30S 22°16' E 166°26'0 0.0
2018-Feb-17 20:57S 22°16' E 166°26'0 0.0
2018-Feb-17 20:30S 22°16' E 166°26'0 0.0
2018-Feb-17 20:00S 22°16' E 166°26'0 0.0
2018-Feb-17 19:30S 22°16' E 166°26'0 0.0
2018-Feb-17 19:00S 22°16' E 166°26'0 0.0
2018-Feb-17 18:30S 22°16' E 166°26'0 0.0
2018-Feb-17 18:00S 22°16' E 166°26'0 0.0
2018-Feb-17 17:30S 22°16' E 166°26'0 0.0
2018-Feb-17 17:00S 22°16' E 166°26'0 0.0
2018-Feb-17 16:27S 22°16' E 166°26'0 0.0
2018-Feb-17 16:00S 22°16' E 166°26'0 0.0
2018-Feb-17 15:30S 22°16' E 166°26'0 0.0
2018-Feb-17 15:00S 22°16' E 166°26'0 0.0
2018-Feb-17 14:30S 22°16' E 166°26'0 0.0
2018-Feb-17 14:00S 22°16' E 166°26'0 0.0
2018-Feb-17 13:30S 22°16' E 166°26'0 0.0
2018-Feb-17 13:00S 22°16' E 166°26'0 0.0
2018-Feb-17 12:30S 22°16' E 166°26'0 0.0
2018-Feb-17 12:00S 22°16' E 166°26'0 0.0
2018-Feb-17 11:30S 22°16' E 166°26'0 0.0
2018-Feb-17 11:00S 22°16' E 166°26'0 0.0
2018-Feb-17 10:30S 22°16' E 166°26'0 0.0
2018-Feb-17 10:00S 22°16' E 166°26'0 0.0
2018-Feb-17 09:30S 22°16' E 166°26'0 0.0
2018-Feb-17 09:00S 22°16' E 166°26'0 0.0
2018-Feb-17 08:27S 22°16' E 166°26'0 0.0
2018-Feb-17 08:00S 22°16' E 166°26'0 0.0
2018-Feb-17 07:30S 22°16' E 166°26'0 0.0
2018-Feb-17 07:00S 22°16' E 166°26'0 0.0
2018-Feb-17 06:30S 22°16' E 166°26'0 0.0
2018-Feb-17 06:00S 22°16' E 166°26'0 0.0
2018-Feb-17 05:30S 22°16' E 166°26'0 0.0
2018-Feb-17 04:57S 22°16' E 166°26'0 0.0
2018-Feb-17 04:30S 22°16' E 166°26'0 0.0
2018-Feb-17 04:00S 22°16' E 166°26'0 0.0
2018-Feb-17 03:30S 22°16' E 166°26'0 0.0
2018-Feb-17 02:54S 22°16' E 166°26'0 0.0
2018-Feb-17 02:27S 22°16' E 166°26'0 0.0
2018-Feb-17 01:57S 22°16' E 166°26'0 0.0
2018-Feb-17 01:30S 22°16' E 166°26'0 0.0
2018-Feb-17 01:00S 22°16' E 166°26'0 0.0
2018-Feb-17 00:30S 22°16' E 166°26'0 0.0
2018-Feb-16 23:57S 22°16' E 166°26'0 0.0
2018-Feb-16 23:30S 22°16' E 166°26'0 0.0
2018-Feb-16 23:00S 22°16' E 166°26'0 0.0
2018-Feb-16 22:29S 22°16' E 166°26'0 0.0
2018-Feb-16 22:00S 22°16' E 166°26'0 0.0
2018-Feb-16 21:29S 22°16' E 166°26'0 0.0
2018-Feb-16 21:00S 22°16' E 166°26'0 0.0
2018-Feb-16 20:30S 22°16' E 166°26'0 0.0
2018-Feb-16 20:00S 22°16' E 166°26'0 0.0
2018-Feb-16 19:30S 22°16' E 166°26'0 0.0
2018-Feb-16 19:00S 22°16' E 166°26'0 0.0
2018-Feb-16 18:30S 22°16' E 166°26'0 0.0
2018-Feb-16 18:00S 22°16' E 166°26'0 0.0
2018-Feb-16 17:30S 22°16' E 166°26'0 0.0
2018-Feb-16 16:59S 22°16' E 166°26'0 0.0
2018-Feb-16 16:30S 22°16' E 166°26'0 0.0
2018-Feb-16 16:00S 22°16' E 166°26'0 0.0
2018-Feb-16 15:30S 22°16' E 166°26'0 0.0
2018-Feb-16 15:00S 22°16' E 166°26'0 0.0
2018-Feb-16 14:30S 22°16' E 166°26'0 0.0
2018-Feb-16 14:00S 22°16' E 166°26'0 0.0
2018-Feb-16 13:29S 22°16' E 166°26'0 0.0
2018-Feb-16 12:59S 22°16' E 166°26'0 0.0
2018-Feb-16 12:30S 22°16' E 166°26'0 0.0
2018-Feb-16 12:00S 22°16' E 166°26'0 0.0
2018-Feb-16 11:29S 22°16' E 166°26'0 0.0
2018-Feb-16 10:59S 22°16' E 166°26'0 0.0
2018-Feb-16 10:30S 22°16' E 166°26'0 0.0
2018-Feb-16 10:00S 22°16' E 166°26'0 0.0
2018-Feb-16 09:29S 22°16' E 166°26'0 0.0
2018-Feb-16 08:59S 22°16' E 166°26'0 0.0
2018-Feb-16 08:30S 22°16' E 166°26'0 0.0
2018-Feb-16 07:59S 22°16' E 166°26'0 0.0
2018-Feb-16 07:29S 22°16' E 166°26'4 8.1
2018-Feb-16 07:00S 22°20' E 166°28'7 0.7
2018-Feb-15 19:58S 22°20' E 166°36'1021.5
2018-Feb-15 19:30S 22°16' E 166°26'0 0.3
2018-Feb-15 19:00S 22°16' E 166°26'0 0.0
2018-Feb-15 18:30S 22°16' E 166°26'0 0.0
2018-Feb-15 18:00S 22°16' E 166°26'0 0.0
2018-Feb-15 17:30S 22°16' E 166°26'0 0.0
2018-Feb-15 17:00S 22°16' E 166°26'0 0.0
2018-Feb-15 16:30S 22°16' E 166°26'0 0.0
2018-Feb-15 16:00S 22°16' E 166°26'0 0.0
2018-Feb-15 15:30S 22°16' E 166°26'0 0.0
2018-Feb-15 14:59S 22°16' E 166°26'0 0.0
2018-Feb-15 14:30S 22°16' E 166°26'0 0.0
2018-Feb-15 14:00S 22°16' E 166°26'0 0.0
2018-Feb-15 13:30S 22°16' E 166°26'0 0.0
2018-Feb-15 13:00S 22°16' E 166°26'0 0.0
2018-Feb-15 12:30S 22°16' E 166°26'0 0.0
2018-Feb-14 23:11S 22°16' E 166°26'1 3.8
2018-Feb-14 23:01S 22°17' E 166°26'1529.3
2018-Feb-14 22:30S 22°23' E 166°40'1 0.4
2018-Feb-14 20:05S 22°23' E 166°39'334.4
2018-Feb-14 20:00S 22°23' E 166°37'1223.1
2018-Feb-14 19:30S 22°16' E 166°26'0 0.4
2018-Feb-14 19:00S 22°16' E 166°26'0 0.0
2018-Feb-14 18:30S 22°16' E 166°26'0 0.0
2018-Feb-14 18:00S 22°16' E 166°26'0 0.0
2018-Feb-14 17:30S 22°16' E 166°26'0 0.0
2018-Feb-14 17:00S 22°16' E 166°26'0 0.0
2018-Feb-14 16:28S 22°16' E 166°26'0 0.0
2018-Feb-14 16:00S 22°16' E 166°26'0 0.0
2018-Feb-14 15:30S 22°16' E 166°26'0 0.0
2018-Feb-14 14:59S 22°16' E 166°26'0 0.0
2018-Feb-14 14:30S 22°16' E 166°26'0 0.0
2018-Feb-14 14:00S 22°16' E 166°26'0 0.0
2018-Feb-14 13:30S 22°16' E 166°26'0 0.0
2018-Feb-14 13:00S 22°16' E 166°26'0 0.0
2018-Feb-14 12:30S 22°16' E 166°26'0 0.0
2018-Feb-14 12:00S 22°16' E 166°26'0 0.0
2018-Feb-14 11:30S 22°16' E 166°26'0 0.0
2018-Feb-14 11:00S 22°16' E 166°26'3 6.7
2018-Feb-14 10:30S 22°20' E 166°26'12 5.1
2018-Feb-14 08:05S 22°23' E 166°39'231.2
2018-Feb-14 08:00S 22°23' E 166°37'1223.3
2018-Feb-14 07:30S 22°17' E 166°26'0 0.9
2018-Feb-14 07:00S 22°16' E 166°26'2 3.6
2018-Feb-14 06:31S 22°18' E 166°25'13 1.2
2018-Feb-13 20:01S 22°23' E 166°38'135.8
2018-Feb-13 20:00S 22°23' E 166°37'1224.4
2018-Feb-13 19:30S 22°16' E 166°26'0 0.4
2018-Feb-13 19:00S 22°16' E 166°26'0 0.0
2018-Feb-13 18:29S 22°16' E 166°26'0 0.0
2018-Feb-13 17:59S 22°16' E 166°26'0 0.0
2018-Feb-13 17:29S 22°16' E 166°26'0 0.0
2018-Feb-13 16:59S 22°16' E 166°26'0 0.0
2018-Feb-13 16:29S 22°16' E 166°26'0 0.0
2018-Feb-13 15:59S 22°16' E 166°26'0 0.0
2018-Feb-13 15:29S 22°16' E 166°26'0 0.0
2018-Feb-13 14:56S 22°16' E 166°26'0 0.0
2018-Feb-13 14:29S 22°16' E 166°26'0 0.0
2018-Feb-13 13:59S 22°16' E 166°26'0 0.0
2018-Feb-13 13:29S 22°16' E 166°26'0 0.0
2018-Feb-13 12:59S 22°16' E 166°26'0 0.0
2018-Feb-13 12:29S 22°16' E 166°26'0 0.0
2018-Feb-13 11:59S 22°16' E 166°26'0 0.0
2018-Feb-13 11:29S 22°16' E 166°26'0 0.0
2018-Feb-13 10:59S 22°16' E 166°26'0 0.0
2018-Feb-13 10:26S 22°16' E 166°26'0 0.0
2018-Feb-13 09:59S 22°16' E 166°26'0 0.0
2018-Feb-13 09:29S 22°16' E 166°26'0 0.0
2018-Feb-13 08:59S 22°16' E 166°26'0 0.0
2018-Feb-13 08:29S 22°16' E 166°26'0 0.0
2018-Feb-13 07:59S 22°16' E 166°26'0 0.0
2018-Feb-13 07:29S 22°16' E 166°26'0 0.0
2018-Feb-13 06:59S 22°16' E 166°26'3 5.4
2018-Feb-13 06:30S 22°19' E 166°26'12 1.1
2018-Feb-12 20:01S 22°23' E 166°37'036.7
2018-Feb-12 20:00S 22°23' E 166°37'1223.3
2018-Feb-12 19:30S 22°16' E 166°26'0 0.2
2018-Feb-12 19:00S 22°16' E 166°26'0 0.0
2018-Feb-12 18:30S 22°16' E 166°26'0 0.0
2018-Feb-12 18:00S 22°16' E 166°26'0 0.0
2018-Feb-12 17:30S 22°16' E 166°26'0 0.0
2018-Feb-12 17:00S 22°16' E 166°26'0 0.0
2018-Feb-12 16:30S 22°16' E 166°26'0 0.0
2018-Feb-12 16:00S 22°16' E 166°26'0 0.0
2018-Feb-12 15:30S 22°16' E 166°26'0 0.0
2018-Feb-12 15:00S 22°16' E 166°26'0 0.0
2018-Feb-12 14:30S 22°16' E 166°26'0 0.0
2018-Feb-12 13:36S 22°16' E 166°26'0 0.0
2018-Feb-12 13:30S 22°16' E 166°26'0 0.0
2018-Feb-12 13:00S 22°16' E 166°26'0 0.0
2018-Feb-12 12:30S 22°16' E 166°26'0 0.0
2018-Feb-12 12:00S 22°16' E 166°26'0 0.0
2018-Feb-12 11:30S 22°16' E 166°26'0 0.0
2018-Feb-12 11:00S 22°16' E 166°26'0 0.0
2018-Feb-12 10:30S 22°16' E 166°26'0 0.0
2018-Feb-12 10:00S 22°16' E 166°26'0 0.0
2018-Feb-12 09:30S 22°16' E 166°26'0 0.0
2018-Feb-12 09:00S 22°16' E 166°26'0 0.0
2018-Feb-12 08:30S 22°16' E 166°26'0 0.0
2018-Feb-12 08:00S 22°16' E 166°26'0 0.0
2018-Feb-12 07:30S 22°16' E 166°26'0 0.0
2018-Feb-12 07:00S 22°16' E 166°26'714.4
2018-Feb-12 06:30S 22°21' E 166°32'7 0.7
2018-Feb-11 20:05S 22°23' E 166°39'335.0
2018-Feb-11 20:00S 22°23' E 166°36'1122.8
2018-Feb-11 19:30S 22°16' E 166°26'0 0.0
2018-Feb-11 19:00S 22°16' E 166°26'0 0.0
2018-Feb-11 18:31S 22°16' E 166°26'0 0.0
2018-Feb-11 17:58S 22°16' E 166°26'0 0.0
2018-Feb-11 17:28S 22°16' E 166°26'0 0.0
2018-Feb-11 16:58S 22°16' E 166°26'0 0.0
2018-Feb-11 16:28S 22°16' E 166°26'0 0.0
2018-Feb-11 16:01S 22°16' E 166°26'0 0.0
2018-Feb-11 15:31S 22°16' E 166°26'0 0.0
2018-Feb-11 15:01S 22°16' E 166°26'0 0.0
2018-Feb-11 14:28S 22°16' E 166°26'0 0.0
2018-Feb-11 13:58S 22°16' E 166°26'0 0.0
2018-Feb-11 13:31S 22°16' E 166°26'0 0.0
2018-Feb-11 13:01S 22°16' E 166°26'0 0.0
2018-Feb-11 12:28S 22°16' E 166°26'0 0.0
2018-Feb-11 11:58S 22°16' E 166°26'0 0.0
2018-Feb-11 11:27S 22°16' E 166°26'0 0.0
2018-Feb-11 11:00S 22°16' E 166°26'0 0.0
2018-Feb-11 10:31S 22°16' E 166°26'0 0.0
2018-Feb-11 10:01S 22°16' E 166°26'0 0.6
2018-Feb-11 09:31S 22°16' E 166°26'1324.6
2018-Feb-11 08:59S 22°23' E 166°38'0 0.3
2018-Feb-11 07:47S 22°23' E 166°39'1036.2
2018-Feb-11 07:31S 22°20' E 166°29'5 9.2
2018-Feb-11 07:00S 22°16' E 166°26'0 0.0
2018-Feb-11 06:30S 22°16' E 166°26'0 0.0
2018-Feb-11 06:00S 22°16' E 166°26'0 0.0
2018-Feb-11 05:30S 22°16' E 166°26'0 0.0
2018-Feb-11 05:00S 22°16' E 166°26'0 0.0
2018-Feb-11 04:30S 22°16' E 166°26'0 0.0
2018-Feb-11 04:00S 22°16' E 166°26'0 0.0
2018-Feb-11 03:30S 22°16' E 166°26'0 0.0
2018-Feb-11 03:00S 22°16' E 166°26'0 0.0
2018-Feb-11 02:28S 22°16' E 166°26'0 0.0
2018-Feb-11 02:00S 22°16' E 166°26'0 0.0
2018-Feb-11 01:29S 22°16' E 166°26'0 0.0
2018-Feb-11 01:00S 22°16' E 166°26'0 0.0
2018-Feb-11 00:30S 22°16' E 166°26'0 0.0
2018-Feb-11 00:00S 22°16' E 166°26'0 0.0
2018-Feb-10 23:30S 22°16' E 166°26'0 0.4
2018-Feb-10 23:00S 22°16' E 166°26'1427.0
2018-Feb-10 22:30S 22°23' E 166°39'0 0.1
2018-Feb-10 20:00S 22°23' E 166°39'1427.4
2018-Feb-10 19:30S 22°16' E 166°26'0 0.8
2018-Feb-10 19:00S 22°16' E 166°26'0 0.0
2018-Feb-10 18:30S 22°16' E 166°26'0 0.0
2018-Feb-10 18:00S 22°16' E 166°26'0 0.0
2018-Feb-10 17:30S 22°16' E 166°26'0 0.0
2018-Feb-10 17:00S 22°16' E 166°26'0 0.0
2018-Feb-10 16:30S 22°16' E 166°26'0 0.0
2018-Feb-10 16:00S 22°16' E 166°26'0 0.0
2018-Feb-10 15:30S 22°16' E 166°26'0 0.0
2018-Feb-10 15:00S 22°16' E 166°26'0 0.0
2018-Feb-10 14:30S 22°16' E 166°26'0 0.0
2018-Feb-10 13:58S 22°16' E 166°26'0 0.0
2018-Feb-10 13:30S 22°16' E 166°26'0 0.0
2018-Feb-10 13:00S 22°16' E 166°26'0 0.0
2018-Feb-10 12:30S 22°16' E 166°26'0 0.0
2018-Feb-10 12:00S 22°16' E 166°26'0 0.0
2018-Feb-10 11:30S 22°16' E 166°26'0 0.0
2018-Feb-10 11:00S 22°16' E 166°26'3 5.2
2018-Feb-10 10:30S 22°19' E 166°26'14 5.6
2018-Feb-10 08:05S 22°23' E 166°40'231.7
2018-Feb-10 08:00S 22°23' E 166°37'1224.4
2018-Feb-10 07:30S 22°16' E 166°26'0 0.8
2018-Feb-10 07:00S 22°16' E 166°26'0 0.0
2018-Feb-10 06:30S 22°16' E 166°26'0 0.0
2018-Feb-10 06:00S 22°16' E 166°26'0 0.0
2018-Feb-10 05:29S 22°16' E 166°26'0 0.0
2018-Feb-10 05:00S 22°16' E 166°26'0 0.0
2018-Feb-10 04:30S 22°16' E 166°26'0 0.0
2018-Feb-10 04:00S 22°16' E 166°26'0 0.0
2018-Feb-10 03:30S 22°16' E 166°26'0 0.0
2018-Feb-10 03:00S 22°16' E 166°26'0 0.0
2018-Feb-10 02:30S 22°16' E 166°26'0 0.0
2018-Feb-10 02:00S 22°16' E 166°26'0 0.0
2018-Feb-10 01:30S 22°16' E 166°26'0 0.0
2018-Feb-10 01:00S 22°16' E 166°26'0 0.0
2018-Feb-10 00:30S 22°16' E 166°26'0 0.0
2018-Feb-10 00:00S 22°16' E 166°26'0 0.0
2018-Feb-09 23:30S 22°16' E 166°26'0 0.0
2018-Feb-09 23:00S 22°16' E 166°26'0 0.0
2018-Feb-09 22:46S 22°16' E 166°26'0 0.0
2018-Feb-09 22:00S 22°16' E 166°26'0 0.0
2018-Feb-09 21:30S 22°16' E 166°26'0 0.0
2018-Feb-09 21:00S 22°16' E 166°26'0 0.0
2018-Feb-09 20:30S 22°16' E 166°26'0 0.0
2018-Feb-09 20:00S 22°16' E 166°26'0 0.0
2018-Feb-09 18:00S 22°16' E 166°26'0 0.0
2018-Feb-09 17:00S 22°16' E 166°26'0 0.0
2018-Feb-09 16:30S 22°16' E 166°26'0 0.0
2018-Feb-09 15:30S 22°16' E 166°26'0 0.0
2018-Feb-09 15:00S 22°16' E 166°26'0 0.0
2018-Feb-09 13:30S 22°16' E 166°26'  

Dump ship's entire track history